PWSweather.com
Personal Weather Stations
Station Observations
CAPEBRETON
Mira Road, Sydney, NS

Mira RoadSydney, NS

Lat: 46.1207292, Lon: -60.1594642

Elevation: 175

Station Type: LaCrosse Weather Pro Center 2800 Series

http://pwscapebreton.weebly.com/

Latest ConditionsUpdated 4:45:31 AM GMT-04:56 Thursday, Sep 3, 2015
Currently Today's Max Today's Min Today's Average
Temperature 62.5°F16.9°C 63.0°F17.2°C 60.1°F15.6°C 61.5°F16.4°C
Dew Point 58.9°F14.9°C 59.1°F15.1°C 56.9°F13.8°C 58.0°F14.4°C
Winds 0.7 mph WSW1.1 kmh WSW 1.3 mph W2.1 kmh W - 0.3 mph 0.5 kmh
Wind Gusts 1.6 mph2.6 kmh 2.5 mph4.0 kmh - -
Humidity 88% 89% 86% 88%
Pressure 29.68 in1005.1 mb 29.73 in1006.8 mb 29.68 in1005.1 mb -
Hour Temp Dew Point Humidity Winds Wind Gusts Pressure Precip Precip Rate Daily Precip Total
04:45 AM 62.5°F16.9°C 58.9°F14.9°C 88% 0.7 mph WSW1.1 kmh WSW 1.6 mph2.6 kmh 29.68 in1005.1 mb 0.00 in0.0 mm 0.00 in0.0 mm 0.00 in0.0 mm
04:40 AM 62.5°F16.9°C 58.9°F14.9°C 88% 0.4 mph SW0.6 kmh SW 1.6 mph2.6 kmh 29.68 in1005.1 mb 0.00 in0.0 mm 0.00 in0.0 mm 0.00 in0.0 mm
04:35 AM 62.6°F17.0°C 59.0°F15.0°C 88% 0.4 mph W0.6 kmh W 2.5 mph4.0 kmh 29.69 in1005.4 mb 0.00 in0.0 mm 0.00 in0.0 mm 0.00 in0.0 mm
04:30 AM 62.6°F17.0°C 59.0°F15.0°C 88% 0.6 mph SW1.0 kmh SW 2.5 mph4.0 kmh 29.69 in1005.4 mb 0.00 in0.0 mm 0.00 in0.0 mm 0.00 in0.0 mm
04:25 AM 62.5°F16.9°C 58.9°F14.9°C 88% 0.8 mph N1.3 kmh N 2.5 mph4.0 kmh 29.68 in1005.1 mb 0.00 in0.0 mm 0.00 in0.0 mm 0.00 in0.0 mm
04:20 AM 62.1°F16.7°C 58.6°F14.8°C 88% 0.9 mph SSW1.4 kmh SSW 1.6 mph2.6 kmh 29.68 in1005.1 mb 0.00 in0.0 mm 0.00 in0.0 mm 0.00 in0.0 mm
04:15 AM 61.6°F16.4°C 58.1°F14.5°C 88% 1.3 mph W2.1 kmh W 2.0 mph3.2 kmh 29.68 in1005.1 mb 0.00 in0.0 mm 0.00 in0.0 mm 0.00 in0.0 mm
04:10 AM 61.4°F16.3°C 58.1°F14.5°C 89% 1.3 mph W2.1 kmh W 2.0 mph3.2 kmh 29.69 in1005.4 mb 0.00 in0.0 mm 0.00 in0.0 mm 0.00 in0.0 mm
04:05 AM 60.5°F15.8°C 57.2°F14.0°C 89% 0.2 mph SE0.3 kmh SE 0.2 mph0.3 kmh 29.68 in1005.1 mb 0.00 in0.0 mm 0.00 in0.0 mm 0.00 in0.0 mm
04:00 AM 60.3°F15.7°C 57.1°F13.9°C 89% Calm Calm 1.3 mph2.1 kmh 29.68 in1005.1 mb 0.00 in0.0 mm 0.00 in0.0 mm 0.00 in0.0 mm
03:55 AM 60.3°F15.7°C 57.1°F13.9°C 89% 0.3 mph SE0.5 kmh SE 1.3 mph2.1 kmh 29.68 in1005.1 mb 0.00 in0.0 mm 0.00 in0.0 mm 0.00 in0.0 mm
03:50 AM 60.1°F15.6°C 56.9°F13.8°C 89% 0.3 mph SSE0.5 kmh SSE 0.9 mph1.4 kmh 29.68 in1005.1 mb 0.00 in0.0 mm 0.00 in0.0 mm 0.00 in0.0 mm
03:45 AM 60.1°F15.6°C 56.9°F13.8°C 89% 0.6 mph SSE1.0 kmh SSE 0.9 mph1.4 kmh 29.68 in1005.1 mb 0.00 in0.0 mm 0.00 in0.0 mm 0.00 in0.0 mm
03:40 AM 60.1°F15.6°C 56.9°F13.8°C 89% 0.3 mph SSE0.5 kmh SSE 0.4 mph0.6 kmh 29.68 in1005.1 mb 0.00 in0.0 mm 0.00 in0.0 mm 0.00 in0.0 mm
03:35 AM 60.3°F15.7°C 57.1°F13.9°C 89% 0.2 mph SSE0.3 kmh SSE 0.2 mph0.3 kmh 29.69 in1005.4 mb 0.00 in0.0 mm 0.00 in0.0 mm 0.00 in0.0 mm
03:30 AM 60.5°F15.8°C 57.2°F14.0°C 89% Calm Calm 0.2 mph0.3 kmh 29.69 in1005.4 mb 0.00 in0.0 mm 0.00 in0.0 mm 0.00 in0.0 mm
03:25 AM 60.7°F15.9°C 57.4°F14.1°C 89% Calm Calm 0.4 mph0.6 kmh 29.70 in1005.8 mb 0.00 in0.0 mm 0.00 in0.0 mm 0.00 in0.0 mm
03:20 AM 60.8°F16.0°C 57.6°F14.2°C 89% 0.4 mph SSE0.6 kmh SSE 0.9 mph1.4 kmh 29.69 in1005.4 mb 0.00 in0.0 mm 0.00 in0.0 mm 0.00 in0.0 mm
03:15 AM 60.8°F16.0°C 57.6°F14.2°C 89% 0.4 mph S0.6 kmh S 0.9 mph1.4 kmh 29.69 in1005.4 mb 0.00 in0.0 mm 0.00 in0.0 mm 0.00 in0.0 mm
03:10 AM 60.8°F16.0°C 57.6°F14.2°C 89% Calm Calm 0.2 mph0.3 kmh 29.69 in1005.4 mb 0.00 in0.0 mm 0.00 in0.0 mm 0.00 in0.0 mm
03:05 AM 60.8°F16.0°C 57.6°F14.2°C 89% 0.2 mph S0.3 kmh S 0.4 mph0.6 kmh 29.69 in1005.4 mb 0.00 in0.0 mm 0.00 in0.0 mm 0.00 in0.0 mm
03:00 AM 60.8°F16.0°C 57.6°F14.2°C 89% 0.3 mph S0.5 kmh S 0.4 mph0.6 kmh 29.70 in1005.8 mb 0.00 in0.0 mm 0.00 in0.0 mm 0.00 in0.0 mm
02:55 AM 61.0°F16.1°C 57.8°F14.3°C 89% Calm Calm 0.2 mph0.3 kmh 29.70 in1005.8 mb 0.00 in0.0 mm 0.00 in0.0 mm 0.00 in0.0 mm
02:50 AM 60.8°F16.0°C 57.6°F14.2°C 89% Calm Calm -- 29.70 in1005.8 mb 0.00 in0.0 mm 0.00 in0.0 mm 0.00 in0.0 mm
02:45 AM 60.8°F16.0°C 57.6°F14.2°C 89% Calm Calm 0.2 mph0.3 kmh 29.70 in1005.8 mb 0.00 in0.0 mm 0.00 in0.0 mm 0.00 in0.0 mm
02:40 AM 60.8°F16.0°C 57.6°F14.2°C 89% 0.2 mph S0.3 kmh S 0.2 mph0.3 kmh 29.70 in1005.8 mb 0.00 in0.0 mm 0.00 in0.0 mm 0.00 in0.0 mm
02:35 AM 60.8°F16.0°C 57.6°F14.2°C 89% 0.2 mph S0.3 kmh S 0.4 mph0.6 kmh 29.70 in1005.8 mb 0.00 in0.0 mm 0.00 in0.0 mm 0.00 in0.0 mm
02:30 AM 60.8°F16.0°C 57.3°F14.1°C 88% 0.2 mph S0.3 kmh S 0.4 mph0.6 kmh 29.70 in1005.8 mb 0.00 in0.0 mm 0.00 in0.0 mm 0.00 in0.0 mm
02:25 AM 60.8°F16.0°C 57.3°F14.1°C 88% 0.2 mph S0.3 kmh S 0.4 mph0.6 kmh 29.70 in1005.8 mb 0.00 in0.0 mm 0.00 in0.0 mm 0.00 in0.0 mm
02:20 AM 60.7°F15.9°C 57.2°F14.0°C 88% 0.2 mph S0.3 kmh S 0.2 mph0.3 kmh 29.70 in1005.8 mb 0.00 in0.0 mm 0.00 in0.0 mm 0.00 in0.0 mm
02:15 AM 60.8°F16.0°C 57.3°F14.1°C 88% Calm Calm -- 29.71 in1006.1 mb 0.00 in0.0 mm 0.00 in0.0 mm 0.00 in0.0 mm
02:10 AM 60.8°F16.0°C 57.3°F14.1°C 88% Calm Calm -- 29.71 in1006.1 mb 0.00 in0.0 mm 0.00 in0.0 mm 0.00 in0.0 mm
02:05 AM 61.0°F16.1°C 57.5°F14.2°C 88% Calm Calm 0.4 mph0.6 kmh 29.71 in1006.1 mb 0.00 in0.0 mm 0.00 in0.0 mm 0.00 in0.0 mm
02:00 AM 61.0°F16.1°C 57.5°F14.2°C 88% 0.4 mph S0.6 kmh S 0.4 mph0.6 kmh 29.71 in1006.1 mb 0.00 in0.0 mm 0.00 in0.0 mm 0.00 in0.0 mm
01:55 AM 61.2°F16.2°C 57.7°F14.3°C 88% Calm Calm 0.7 mph1.1 kmh 29.71 in1006.1 mb 0.00 in0.0 mm 0.00 in0.0 mm 0.00 in0.0 mm
01:50 AM 61.2°F16.2°C 57.7°F14.3°C 88% 0.4 mph S0.6 kmh S 0.7 mph1.1 kmh 29.71 in1006.1 mb 0.00 in0.0 mm 0.00 in0.0 mm 0.00 in0.0 mm
01:45 AM 61.2°F16.2°C 57.3°F14.1°C 87% 0.2 mph S0.3 kmh S 0.7 mph1.1 kmh 29.71 in1006.1 mb 0.00 in0.0 mm 0.00 in0.0 mm 0.00 in0.0 mm
01:40 AM 61.2°F16.2°C 57.3°F14.1°C 87% 0.3 mph S0.5 kmh S 0.7 mph1.1 kmh 29.71 in1006.1 mb 0.00 in0.0 mm 0.00 in0.0 mm 0.00 in0.0 mm
01:35 AM 61.4°F16.3°C 57.5°F14.2°C 87% 0.5 mph S0.8 kmh S 0.7 mph1.1 kmh 29.71 in1006.1 mb 0.00 in0.0 mm 0.00 in0.0 mm 0.00 in0.0 mm
01:30 AM 61.6°F16.4°C 57.7°F14.3°C 87% 0.4 mph SSW0.6 kmh SSW 0.4 mph0.6 kmh 29.71 in1006.1 mb 0.00 in0.0 mm 0.00 in0.0 mm 0.00 in0.0 mm
01:25 AM 61.7°F16.5°C 57.9°F14.4°C 87% 0.4 mph SSW0.6 kmh SSW 0.4 mph0.6 kmh 29.71 in1006.1 mb 0.00 in0.0 mm 0.00 in0.0 mm 0.00 in0.0 mm
01:20 AM 61.9°F16.6°C 58.1°F14.5°C 87% Calm Calm 1.1 mph1.8 kmh 29.71 in1006.1 mb 0.00 in0.0 mm 0.00 in0.0 mm 0.00 in0.0 mm
01:15 AM 62.3°F16.8°C 58.4°F14.7°C 87% 0.2 mph SSW0.3 kmh SSW 1.1 mph1.8 kmh 29.71 in1006.1 mb 0.00 in0.0 mm 0.00 in0.0 mm 0.00 in0.0 mm
01:10 AM 62.3°F16.8°C 58.4°F14.7°C 87% 0.4 mph S0.6 kmh S 0.7 mph1.1 kmh 29.71 in1006.1 mb 0.00 in0.0 mm 0.00 in0.0 mm 0.00 in0.0 mm
01:05 AM 62.6°F17.0°C 58.8°F14.9°C 87% 0.3 mph S0.5 kmh S 0.4 mph0.6 kmh 29.72 in1006.4 mb 0.00 in0.0 mm 0.00 in0.0 mm 0.00 in0.0 mm
01:00 AM 62.5°F16.9°C 58.6°F14.8°C 87% 0.4 mph S0.6 kmh S 0.4 mph0.6 kmh 29.72 in1006.4 mb 0.00 in0.0 mm 0.00 in0.0 mm 0.00 in0.0 mm
12:55 AM 62.5°F16.9°C 58.6°F14.8°C 87% Calm Calm 0.4 mph0.6 kmh 29.72 in1006.4 mb 0.00 in0.0 mm 0.00 in0.0 mm 0.00 in0.0 mm
12:50 AM 62.3°F16.8°C 58.4°F14.7°C 87% 0.4 mph ENE0.6 kmh ENE 0.4 mph0.6 kmh 29.72 in1006.4 mb 0.00 in0.0 mm 0.00 in0.0 mm 0.00 in0.0 mm
12:45 AM 62.3°F16.8°C 58.4°F14.7°C 87% Calm Calm -- 29.72 in1006.4 mb 0.00 in0.0 mm 0.00 in0.0 mm 0.00 in0.0 mm
12:40 AM 62.5°F16.9°C 58.6°F14.8°C 87% Calm Calm 0.4 mph0.6 kmh 29.72 in1006.4 mb 0.00 in0.0 mm 0.00 in0.0 mm 0.00 in0.0 mm
12:35 AM 62.6°F17.0°C 58.8°F14.9°C 87% 0.4 mph ENE0.6 kmh ENE 0.4 mph0.6 kmh 29.72 in1006.4 mb 0.00 in0.0 mm 0.00 in0.0 mm 0.00 in0.0 mm
12:30 AM 62.6°F17.0°C 58.8°F14.9°C 87% Calm Calm 0.2 mph0.3 kmh 29.72 in1006.4 mb 0.00 in0.0 mm 0.00 in0.0 mm 0.00 in0.0 mm
12:25 AM 62.6°F17.0°C 58.8°F14.9°C 87% 0.2 mph WSW0.3 kmh WSW 0.2 mph0.3 kmh 29.72 in1006.4 mb 0.00 in0.0 mm 0.00 in0.0 mm 0.00 in0.0 mm
12:20 AM 62.8°F17.1°C 58.6°F14.8°C 86% 0.2 mph WSW0.3 kmh WSW 0.4 mph0.6 kmh 29.72 in1006.4 mb 0.00 in0.0 mm 0.00 in0.0 mm 0.00 in0.0 mm
12:15 AM 63.0°F17.2°C 58.8°F14.9°C 86% Calm Calm 0.7 mph1.1 kmh 29.72 in1006.4 mb 0.00 in0.0 mm 0.00 in0.0 mm 0.00 in0.0 mm
12:10 AM 63.0°F17.2°C 59.1°F15.1°C 87% 0.4 mph WSW0.6 kmh WSW 0.9 mph1.4 kmh 29.72 in1006.4 mb 0.00 in0.0 mm 0.00 in0.0 mm 0.00 in0.0 mm
12:05 AM 63.0°F17.2°C 59.1°F15.1°C 87% 0.4 mph SSW0.6 kmh SSW 1.3 mph2.1 kmh 29.73 in1006.8 mb 0.00 in0.0 mm 0.00 in0.0 mm 0.00 in0.0 mm
12:00 AM 62.8°F17.1°C 59.0°F15.0°C 87% 0.4 mph SW0.6 kmh SW 2.2 mph3.5 kmh 29.73 in1006.8 mb 0.00 in0.0 mm 0.00 in0.0 mm 0.00 in0.0 mm